Time;durP1;ratioP1;P1;durP2;ratioP2;P2;SDS_P1;SDS_P2;PMS_P1;PMS_P2;Temp;Humidity;BMP_temperature;BMP_pressure;BME280_temperature;BME280_humidity;BME280_pressure;Samples;Min_cycle;Max_cycle;Signal;HPM_P1;HPM_P2
2022/08/21 00:09:50;;;;;;;7.03;2.53;;;;;;;17.84;85.38;101453.16;20959988;28;20054;-61
2022/08/21 00:20:15;;;;;;;12.27;2.40;;;;;;;17.77;85.79;101438.81;20955587;28;20041;-61
2022/08/21 00:30:37;;;;;;;5.30;2.30;;;;;;;18.07;82.59;101441.47;20953309;28;20044;-61
2022/08/21 00:41:01;;;;;;;12.32;3.15;;;;;;;17.57;86.17;101437.84;20963688;28;20510;-61
2022/08/21 00:51:53;;;;;;;6.45;2.70;;;;;;;17.49;87.58;101434.19;20955672;28;20044;-61
2022/08/21 01:02:16;;;;;;;7.88;2.50;;;;;;;17.44;88.38;101433.75;20965027;28;20048;-61
2022/08/21 01:12:39;;;;;;;7.50;2.63;;;;;;;17.29;88.69;101424.44;20951462;28;20044;-61
2022/08/21 01:23:04;;;;;;;11.13;2.63;;;;;;;17.31;88.10;101434.88;20948846;28;20059;-61
2022/08/21 01:33:25;;;;;;;5.47;2.40;;;;;;;17.41;85.92;101436.63;20957010;28;20040;-61
2022/08/21 01:43:47;;;;;;;4.47;2.30;;;;;;;16.93;88.87;101424.81;20952176;28;20051;-62
2022/08/21 01:54:09;;;;;;;7.28;2.40;;;;;;;16.97;89.41;101430.66;20975870;28;20072;-61
2022/08/21 02:04:32;;;;;;;6.53;2.30;;;;;;;16.83;90.78;101431.78;20952120;28;20651;-61
2022/08/21 02:14:53;;;;;;;5.25;2.20;;;;;;;16.74;91.34;101424.63;20950168;28;20595;-61
2022/08/21 02:25:17;;;;;;;8.15;2.20;;;;;;;16.90;88.29;101411.88;20953358;28;20044;-61
2022/08/21 02:35:41;;;;;;;2.80;1.90;;;;;;;16.89;88.55;101402.31;20966414;28;20409;-62
2022/08/21 02:46:05;;;;;;;5.97;2.20;;;;;;;16.71;89.56;101393.28;20971985;28;20044;-60
2022/08/21 02:56:27;;;;;;;4.75;1.90;;;;;;;17.10;85.95;101394.47;20984931;28;20138;-62
2022/08/21 03:06:52;;;;;;;10.10;2.17;;;;;;;17.11;86.44;101396.13;20962725;28;20507;-61
2022/08/21 03:17:13;;;;;;;5.25;1.98;;;;;;;16.72;88.17;101391.47;20962219;28;20049;-63
2022/08/21 03:27:35;;;;;;;6.18;2.30;;;;;;;16.49;89.10;101398.59;20963844;28;20048;-61
2022/08/21 03:37:59;;;;;;;6.00;2.30;;;;;;;16.44;90.33;101384.97;20962549;28;20050;-63
2022/08/21 03:48:21;;;;;;;7.72;3.03;;;;;;;16.33;92.15;101375.41;20963270;28;20044;-63
2022/08/21 03:58:43;;;;;;;10.73;3.00;;;;;;;16.46;89.68;101377.75;20953178;28;20409;-63
2022/08/21 04:09:05;;;;;;;7.20;2.83;;;;;;;16.43;90.74;101378.03;20956878;28;20052;-62
2022/08/21 04:19:26;;;;;;;9.43;3.60;;;;;;;15.85;93.16;101381.88;20956930;28;20404;-62
2022/08/21 04:29:50;;;;;;;8.35;3.60;;;;;;;16.07;92.39;101392.38;20950088;28;20049;-61
2022/08/21 04:40:13;;;;;;;9.50;3.90;;;;;;;16.07;91.44;101390.59;20956524;28;20048;-62
2022/08/21 04:50:38;;;;;;;9.82;4.10;;;;;;;16.14;91.60;101406.75;20948860;28;20135;-61
2022/08/21 05:01:01;;;;;;;11.13;4.30;;;;;;;15.93;93.43;101406.63;20955838;28;20079;-62
2022/08/21 05:11:22;;;;;;;10.68;4.38;;;;;;;15.93;94.91;101418.91;20955570;28;20802;-62
2022/08/21 05:21:47;;;;;;;9.85;4.45;;;;;;;16.01;92.69;101412.09;20952848;28;20047;-61
2022/08/21 05:32:10;;;;;;;10.57;5.28;;;;;;;16.24;92.23;101413.78;20953253;28;20456;-61
2022/08/21 05:42:32;;;;;;;9.00;5.10;;;;;;;16.36;92.61;101417.28;20948695;28;20051;-61
2022/08/21 05:52:53;;;;;;;8.85;4.82;;;;;;;16.49;92.49;101406.47;20950049;28;20052;-62
2022/08/21 06:03:30;;;;;;;10.57;4.80;;;;;;;16.61;91.46;101402.88;20948884;28;20048;-61
2022/08/21 06:13:52;;;;;;;13.25;5.32;;;;;;;16.92;91.64;101396.78;20966921;28;20064;-61
2022/08/21 06:24:14;;;;;;;11.35;5.47;;;;;;;17.12;91.44;101403.91;20967167;28;20393;-62
2022/08/21 06:34:37;;;;;;;13.55;4.97;;;;;;;17.62;88.92;101408.44;20966943;28;20068;-61
2022/08/21 06:44:59;;;;;;;11.10;4.45;;;;;;;18.07;86.80;101412.44;20969576;28;20401;-62
2022/08/21 06:55:20;;;;;;;9.45;4.60;;;;;;;18.32;86.11;101406.78;20964821;28;20066;-62
2022/08/21 07:05:46;;;;;;;7.68;3.80;;;;;;;18.48;88.60;101400.00;20963605;28;20140;-62
2022/08/21 07:16:08;;;;;;;8.32;3.35;;;;;;;18.90;85.25;101391.75;20943496;28;20883;-62
2022/08/21 07:26:29;;;;;;;11.18;3.58;;;;;;;19.17;83.50;101399.84;20958056;28;20056;-62
2022/08/21 07:36:51;;;;;;;8.45;3.55;;;;;;;19.40;81.04;101395.91;20956362;28;20669;-62
2022/08/21 07:47:13;;;;;;;6.15;2.53;;;;;;;19.49;82.18;101395.91;20962191;28;20040;-60
2022/08/21 07:57:35;;;;;;;11.55;3.13;;;;;;;19.60;79.45;101402.88;20967050;28;20067;-61
2022/08/21 08:07:56;;;;;;;8.65;2.40;;;;;;;19.88;78.85;101401.94;20952385;28;20051;-61
2022/08/21 08:18:18;;;;;;;9.63;2.90;;;;;;;20.08;78.75;101403.59;20956651;28;20048;-61
2022/08/21 08:28:40;;;;;;;7.57;2.75;;;;;;;20.52;76.92;101393.88;20958035;28;20051;-61
2022/08/21 08:39:04;;;;;;;14.68;2.65;;;;;;;20.85;74.55;101401.22;20943024;28;20045;-61
2022/08/21 08:49:36;;;;;;;7.07;2.70;;;;;;;21.18;73.07;101397.91;20954536;28;20423;-62
2022/08/21 09:00:04;;;;;;;8.90;2.70;;;;;;;21.20;72.49;101401.25;20955537;28;20052;-61
2022/08/21 09:10:46;;;;;;;9.82;2.70;;;;;;;21.56;69.22;101397.53;20965122;28;20050;-61
2022/08/21 09:21:31;;;;;;;9.55;2.10;;;;;;;22.15;68.62;101387.81;20941798;28;20040;-61
2022/08/21 09:31:53;;;;;;;7.60;1.90;;;;;;;22.18;65.65;101384.00;20936711;28;20045;-61
2022/08/21 09:42:22;;;;;;;7.80;2.10;;;;;;;22.31;63.06;101395.00;20950580;28;20052;-60
2022/08/21 09:52:49;;;;;;;7.47;2.10;;;;;;;22.20;63.25;101397.97;20936372;28;20048;-61
2022/08/21 10:03:21;;;;;;;10.27;1.30;;;;;;;21.75;64.03;101379.63;20952924;28;20051;-61
2022/08/21 10:14:01;;;;;;;4.45;1.50;;;;;;;22.58;60.67;101377.84;20934281;28;20575;-62
2022/08/21 10:24:32;;;;;;;4.85;1.40;;;;;;;22.78;61.77;101357.97;20955619;28;20044;-61
2022/08/21 10:35:08;;;;;;;9.98;1.80;;;;;;;22.41;61.08;101356.72;20935894;28;20524;-62
2022/08/21 10:45:38;;;;;;;6.10;1.35;;;;;;;22.61;61.56;101363.44;20941610;28;20045;-61
2022/08/21 10:56:02;;;;;;;;;;;;;;;23.17;61.31;101352.88;20954341;28;20055;-62
2022/08/21 11:06:30;;;;;;;3.63;1.48;;;;;;;23.36;58.74;101360.53;20950200;28;20428;-62
2022/08/21 11:17:12;;;;;;;5.90;1.50;;;;;;;23.93;56.17;101363.78;20943315;28;20086;-61
2022/08/21 11:27:58;;;;;;;4.38;1.33;;;;;;;24.33;57.38;101352.09;20957486;28;20564;-62
2022/08/21 11:38:47;;;;;;;8.40;1.70;;;;;;;23.88;56.04;101359.94;20940762;28;20078;-62
2022/08/21 11:49:41;;;;;;;6.07;1.20;;;;;;;23.95;55.72;101358.28;20934871;28;20864;-62
2022/08/21 12:00:23;;;;;;;5.22;1.70;;;;;;;23.28;56.06;101356.06;20942284;28;20481;-62
2022/08/21 12:11:06;;;;;;;3.75;1.20;;;;;;;24.23;52.91;101354.16;20942054;28;20497;-62
2022/08/21 12:21:28;;;;;;;8.07;1.33;;;;;;;24.81;52.50;101350.84;20942261;28;20048;-62
2022/08/21 12:32:04;;;;;;;7.03;1.30;;;;;;;24.84;51.27;101339.84;20943188;28;20052;-62
2022/08/21 12:42:46;;;;;;;4.85;1.10;;;;;;;24.63;50.21;101342.28;20935140;28;20048;-62
2022/08/21 12:53:25;;;;;;;6.55;1.40;;;;;;;24.13;53.48;101327.72;20942430;28;20056;-62
2022/08/21 13:03:48;;;;;;;6.53;1.35;;;;;;;24.46;50.67;101327.41;20946876;28;20048;-62
2022/08/21 13:14:37;;;;;;;4.17;1.17;;;;;;;24.37;52.04;101317.75;20941714;28;20040;-62
2022/08/21 13:25:15;;;;;;;4.45;1.00;;;;;;;24.55;52.92;101313.03;20940464;28;20791;-62
2022/08/21 13:35:47;;;;;;;3.20;0.98;;;;;;;25.29;49.97;101313.13;20922907;28;20049;-62
2022/08/21 13:46:12;;;;;;;2.67;1.13;;;;;;;25.19;48.93;101317.06;20958965;28;20712;-67
2022/08/21 13:56:46;;;;;;;2.25;1.00;;;;;;;24.59;50.02;101313.50;20943173;28;20056;-63
2022/08/21 14:07:21;;;;;;;2.78;1.10;;;;;;;25.00;49.75;101323.69;20941329;28;20044;-63
2022/08/21 14:17:44;;;;;;;2.55;0.80;;;;;;;25.19;47.81;101323.22;20932228;28;20044;-62
2022/08/21 14:28:25;;;;;;;2.47;0.77;;;;;;;25.48;45.99;101323.25;20951832;28;20073;-62
2022/08/21 14:38:49;;;;;;;2.33;1.02;;;;;;;25.45;44.46;101334.34;20949791;28;20086;-61
2022/08/21 14:49:11;;;;;;;4.10;1.08;;;;;;;25.13;46.60;101339.97;20956307;28;20044;-62
2022/08/21 14:59:33;;;;;;;2.17;1.00;;;;;;;25.60;46.79;101322.66;20947830;28;20044;-63
2022/08/21 15:09:56;;;;;;;9.00;0.80;;;;;;;25.14;46.12;101314.94;20946655;28;20052;-64
2022/08/21 15:20:17;;;;;;;4.43;1.00;;;;;;;24.92;52.65;101321.06;20941883;28;20040;-64
2022/08/21 15:30:40;;;;;;;4.18;0.93;;;;;;;25.33;45.64;101329.59;20963116;28;20051;-63
2022/08/21 15:41:04;;;;;;;3.58;0.95;;;;;;;25.20;48.03;101314.19;20939976;28;20045;-64
2022/08/21 15:51:26;;;;;;;1.45;0.85;;;;;;;25.04;48.38;101334.84;20943121;28;20067;-64
2022/08/21 16:01:51;;;;;;;2.42;1.10;;;;;;;24.76;49.49;101326.53;20953751;28;20045;-62
2022/08/21 16:12:22;;;;;;;3.05;1.20;;;;;;;24.22;56.79;101340.03;20963102;28;20146;-61
2022/08/21 16:22:44;;;;;;;5.60;1.20;;;;;;;23.95;62.25;101355.59;20946581;28;20047;-61
2022/08/21 16:33:07;;;;;;;6.47;1.25;;;;;;;23.74;61.74;101349.97;20940307;28;20048;-62
2022/08/21 16:43:30;;;;;;;7.38;1.50;;;;;;;23.75;63.14;101348.97;20954199;28;20040;-60
2022/08/21 16:53:53;;;;;;;3.75;1.52;;;;;;;23.80;63.62;101347.47;20948948;28;20133;-61
2022/08/21 17:04:14;;;;;;;5.28;1.70;;;;;;;23.82;64.35;101357.97;20933270;28;20041;-61
2022/08/21 17:14:36;;;;;;;6.40;1.75;;;;;;;23.45;64.49;101357.66;20938454;28;20589;-61
2022/08/21 17:24:58;;;;;;;9.65;1.60;;;;;;;23.35;64.66;101377.50;20935993;28;20528;-61
2022/08/21 17:35:20;;;;;;;8.35;1.40;;;;;;;23.05;64.60;101380.78;20940257;28;20053;-61
2022/08/21 17:45:43;;;;;;;4.55;1.23;;;;;;;22.57;68.38;101392.16;20934974;28;20045;-62
2022/08/21 17:56:06;;;;;;;3.35;1.15;;;;;;;22.51;70.23;101394.63;20942141;28;20044;-61
2022/08/21 18:06:28;;;;;;;10.57;1.73;;;;;;;22.36;72.29;101408.69;20952370;28;20049;-62
2022/08/21 18:16:49;;;;;;;5.60;1.67;;;;;;;22.30;72.12;101422.56;20951718;28;20041;-62
2022/08/21 18:27:13;;;;;;;7.95;1.77;;;;;;;22.00;73.45;101412.44;20951356;28;20041;-62
2022/08/21 18:37:36;;;;;;;4.50;1.60;;;;;;;21.76;73.83;101425.59;20965379;28;20135;-61
2022/08/21 18:47:57;;;;;;;6.15;1.90;;;;;;;21.86;72.51;101427.16;20962023;28;20041;-62
2022/08/21 18:58:19;;;;;;;5.20;1.73;;;;;;;21.81;74.42;101434.75;20964735;28;20505;-61
2022/08/21 19:08:41;;;;;;;8.48;1.90;;;;;;;21.79;73.38;101447.34;20969545;28;20044;-63
2022/08/21 19:19:03;;;;;;;8.85;1.63;;;;;;;21.60;74.34;101449.34;20961757;28;20482;-63
2022/08/21 19:29:25;;;;;;;8.68;1.80;;;;;;;21.43;76.73;101461.63;20965355;28;20048;-63
2022/08/21 19:40:08;;;;;;;11.25;2.10;;;;;;;21.35;77.51;101458.06;20964582;28;20048;-60
2022/08/21 19:50:30;;;;;;;5.68;1.88;;;;;;;21.43;75.80;101460.78;20960921;28;20044;-63
2022/08/21 20:00:52;;;;;;;11.45;2.10;;;;;;;21.10;75.05;101464.16;20958888;28;20052;-60
2022/08/21 20:11:27;;;;;;;7.05;1.90;;;;;;;21.17;76.89;101467.84;20960803;28;20098;-63
2022/08/21 20:21:53;;;;;;;10.80;1.90;;;;;;;21.05;75.94;101473.50;20961752;28;20203;-62
2022/08/21 20:32:16;;;;;;;7.03;1.70;;;;;;;21.10;75.64;101469.44;20953680;28;20048;-62
2022/08/21 20:42:44;;;;;;;5.65;1.52;;;;;;;21.00;76.66;101467.84;20954008;28;20507;-63
2022/08/21 20:53:13;;;;;;;5.85;1.63;;;;;;;20.92;76.22;101465.94;20942019;28;20061;-60
2022/08/21 21:03:41;;;;;;;10.55;2.10;;;;;;;20.87;76.44;101470.84;20967589;28;20036;-61
2022/08/21 21:14:10;;;;;;;8.45;1.80;;;;;;;20.90;77.26;101475.84;20959352;28;20050;-61
2022/08/21 21:24:56;;;;;;;9.15;1.90;;;;;;;20.58;77.65;101480.72;20976069;28;20044;-61
2022/08/21 21:35:24;;;;;;;7.18;1.77;;;;;;;20.77;78.01;101487.75;20953895;28;20048;-61
2022/08/21 21:46:13;;;;;;;11.30;2.05;;;;;;;20.57;79.54;101476.41;20951605;28;20048;-60
2022/08/21 21:56:51;;;;;;;15.73;2.50;;;;;;;20.44;79.80;101483.84;20952102;28;20072;-60
2022/08/21 22:07:28;;;;;;;9.40;1.80;;;;;;;20.41;80.98;101486.78;20953109;28;20052;-60
2022/08/21 22:18:07;;;;;;;9.73;1.90;;;;;;;20.45;80.01;101487.34;20966152;28;20032;-60
2022/08/21 22:28:34;;;;;;;9.18;1.73;;;;;;;20.35;80.44;101498.97;20950264;28;20048;-61
2022/08/21 22:38:55;;;;;;;12.35;2.13;;;;;;;20.50;80.17;101506.28;20950027;28;20067;-60
2022/08/21 22:49:42;;;;;;;10.52;2.03;;;;;;;20.37;81.38;101504.97;20962356;28;20040;-61
2022/08/21 23:00:14;;;;;;;11.85;2.13;;;;;;;20.30;81.37;101498.56;20965053;28;20051;-61
2022/08/21 23:10:40;;;;;;;9.25;2.00;;;;;;;20.16;82.25;101496.38;20948769;28;20131;-60
2022/08/21 23:21:19;;;;;;;13.45;2.20;;;;;;;20.04;83.17;101492.22;20946439;28;20086;-61
2022/08/21 23:31:49;;;;;;;6.97;2.17;;;;;;;19.86;83.70;101499.19;20963358;28;20040;-61
2022/08/21 23:42:26;;;;;;;14.40;2.30;;;;;;;20.11;81.74;101488.88;20964212;28;20570;-60
2022/08/21 23:53:06;;;;;;;9.13;1.85;;;;;;;19.86;83.83;101489.44;20959365;28;20067;-61
